Weerstation
Sluispark-LeuvenLeuven-Sluispark

Weerstation
Wilsele-PutkapelWilsele-Putkapel



Nabijgelegen vliegvelden - METAR rapporten

   
EBBR - Wilsele bij Leuven
Gewijzigd: 21-09-2021 18:20
Licht bewolkt    Wind: NNO 9.3 km/h
Licht bewolkt
Wind: Wind: NNO 9.3 km/h
Temperatuur: 17°C
Dauwpunt: 7°C
Vochtigheid: 52%
Barometer: 1030 hPa
Bewolking: Licht bewolkt
Zicht: meer dan 10 km
Bewolking: Licht bewolkt 1402.1 m
EBBR 211620Z 03005KT 9999 FEW046 17/07 Q1030 NOSIG
EBAW - Antwerp
Gewijzigd: 21-09-2021 18:20
Helder    Wind: ONO 9.3 km/h
Helder
Wind: Wind: ONO 9.3 km/h
Temperatuur: 17°C
Dauwpunt: 7°C
Vochtigheid: 52%
Barometer: 1030 hPa
Zicht: meer dan 10 km
Bewolking: Helder
EBAW 211620Z 07005KT CAVOK 17/07 Q1030 NOSIG
EBLG - Li├Ęge
Gewijzigd: 21-09-2021 18:20
Helder    Wind: NO 9.3 km/h
Helder
Wind: Wind: NO 9.3 km/h
Temperatuur: 15°C
Dauwpunt: 6°C
Vochtigheid: 55%
Barometer: 1030 hPa
Zicht: meer dan 10 km
Bewolking: Helder
EBLG 211620Z 04005KT 360V060 CAVOK 15/06 Q1030 NOSIG
EBCV - Mons/Bergen
Gewijzigd: 21-09-2021 18:25
Helder    Wind: NNO 11.1 km/h
Helder
Wind: Wind: NNO 11.1 km/h
Temperatuur: 17°C
Dauwpunt: 9°C
Vochtigheid: 59%
Barometer: 1030 hPa
Bewolking: Helder
Zicht: meer dan 10 km
Bewolking: Helder
EBCV 211625Z AUTO 02006KT 9999 NCD 17/09 Q1030 BLU
EHBK - Maastricht
Gewijzigd: 21-09-2021 18:25
Helder    Wind: NO 11.1 km/h
Helder
Wind: Wind: NO 11.1 km/h
Temperatuur: 16°C
Dauwpunt: 7°C
Vochtigheid: 55%
Barometer: 1030 hPa
Zicht: meer dan 10 km
Bewolking: Helder
EHBK 211625Z AUTO 05006KT CAVOK 16/07 Q1030 NOSIG
ELLX - Luxemburg
Gewijzigd: 21-09-2021 18:20
Helder    Wind: NNO 16.7 km/h
Helder
Wind: Wind: NNO 16.7 km/h
Temperatuur: 15°C
Dauwpunt: 6°C
Vochtigheid: 55%
Barometer: 1029 hPa
Zicht: meer dan 10 km
Bewolking: Helder
ELLX 211620Z 03009KT CAVOK 15/06 Q1029 NOSIG
EBOS - Oostende
Gewijzigd: 21-09-2021 18:20
Helder    Wind: Noorden 7.4 km/h
Helder
Wind: Wind: Noorden 7.4 km/h
Temperatuur: 17°C
Dauwpunt: 8°C
Vochtigheid: 56%
Barometer: 1031 hPa
Zicht: meer dan 10 km
Bewolking: Helder
EBOS 211620Z 36004KT 330V040 CAVOK 17/08 Q1031 NOSIG
  

Script ontwikkeld door  Saratoga-weather.org Aangepast voor de template door  Weerstation Leuven

U vindt ons ook hier:

UK Metoffice

WeatherCloud

European Weather Network

Weather Underground

Benelux Weather Network

AWEKAS

WeatherlinkIP

HAMweather, WeatherForYou, PWS Weather

Het Weer Aktueel

Apparatuur in gebruik:

Weer-station
Davis VP2 weatherstation

Weer-programma
Meteobridge

Weer-computer
D-Link DIR-505

Davis VP2 weatherstation

Meteobridge

D-Link DIR-505